Myra, West Virginia
Current Conditions -  °F | °C
As of 3:51 PM on Friday 19 Dec 2014 (Local Time) from KHTS Reporting Station
Overcast Overcast  
Wind Chill: 31°   Ceiling: 2300
Heat Index: 31°   Visibility: 10mi
Dew Point: 23°   Wind: 0mph
Humidity: 72%   Direction: NA
Pressure: 30.23"   Gusts: NA
Location:  38.22°N, 82.11°W
Report Text: KHTS 192051Z 00000KT 10SM OVC023 M01/M05 A3023 RMK AO2 SLP245 T10061050 56009
Loading
Personal Weather Stations






























Interactive Weather Map New forecast layout! Learn more

10-Day Weather Forecast

Advertisements
Track Severe Weather on mobile